Time;durP1;ratioP1;P1;durP2;ratioP2;P2;SDS_P1;SDS_P2;PMS_P1;PMS_P2;Temp;Humidity;BMP_temperature;BMP_pressure;BME280_temperature;BME280_humidity;BME280_pressure;Samples;Min_cycle;Max_cycle;Signal;HPM_P1;HPM_P2
2023/05/23 00:01:07;;;;;;;5.63;5.13;;;;;;;;;;5117865;28;20302;-82
2023/05/23 00:03:35;;;;;;;6.72;6.13;;;;;;;;;;5117177;28;20282;-83
2023/05/23 00:06:03;;;;;;;6.22;5.15;;;;;;;;;;5118778;28;20631;-82
2023/05/23 00:08:30;;;;;;;7.35;6.65;;;;;;;;;;5118166;28;20211;-82
2023/05/23 00:11:01;;;;;;;6.93;6.28;;;;;;;;;;5117430;28;20328;-82
2023/05/23 00:13:29;;;;;;;6.93;6.30;;;;;;;;;;5117579;28;20732;-84
2023/05/23 00:15:56;;;;;;;8.85;7.15;;;;;;;;;;5117444;28;20266;-83
2023/05/23 00:18:24;;;;;;;8.77;7.93;;;;;;;;;;5117882;28;20262;-83
2023/05/23 00:20:51;;;;;;;5.53;5.13;;;;;;;;;;5117251;28;20220;-83
2023/05/23 00:23:20;;;;;;;7.68;7.00;;;;;;;;;;5117642;28;20282;-83
2023/05/23 00:25:51;;;;;;;9.32;7.80;;;;;;;;;;5118934;28;20294;-82
2023/05/23 00:28:20;;;;;;;6.82;6.22;;;;;;;;;;5117553;28;20254;-82
2023/05/23 00:30:48;;;;;;;9.48;8.68;;;;;;;;;;5117276;28;20226;-82
2023/05/23 00:33:20;;;;;;;10.45;9.38;;;;;;;;;;5117315;28;20310;-82
2023/05/23 00:35:48;;;;;;;10.93;9.93;;;;;;;;;;5117982;28;20200;-83
2023/05/23 00:38:16;;;;;;;9.65;8.73;;;;;;;;;;5117218;28;20218;-82
2023/05/23 00:40:44;;;;;;;9.80;7.55;;;;;;;;;;5120327;28;20224;-82
2023/05/23 00:43:12;;;;;;;9.50;8.60;;;;;;;;;;5116979;28;20207;-83
2023/05/23 00:45:41;;;;;;;9.90;9.00;;;;;;;;;;5115356;28;20562;-84
2023/05/23 00:48:08;;;;;;;10.80;9.80;;;;;;;;;;5116784;28;20200;-84
2023/05/23 00:50:36;;;;;;;9.65;8.75;;;;;;;;;;5116532;28;20224;-83
2023/05/23 00:53:04;;;;;;;10.07;9.07;;;;;;;;;;5116619;28;20251;-81
2023/05/23 00:55:32;;;;;;;10.20;9.20;;;;;;;;;;5116572;28;20200;-82
2023/05/23 00:58:00;;;;;;;9.52;8.50;;;;;;;;;;5116641;28;20267;-81
2023/05/23 01:00:27;;;;;;;9.73;8.93;;;;;;;;;;5115259;28;20759;-82
2023/05/23 01:02:56;;;;;;;9.13;8.23;;;;;;;;;;5116449;28;20200;-82
2023/05/23 01:05:24;;;;;;;9.85;8.93;;;;;;;;;;5115884;28;20200;-83
2023/05/23 01:07:52;;;;;;;9.57;8.77;;;;;;;;;;5115761;28;20203;-83
2023/05/23 01:10:23;;;;;;;10.75;9.60;;;;;;;;;;5115808;28;20304;-83
2023/05/23 01:13:06;;;;;;;12.05;10.48;;;;;;;;;;5115714;28;20227;-83
2023/05/23 01:15:42;;;;;;;10.65;9.65;;;;;;;;;;5116695;28;20194;-82
2023/05/23 01:18:17;;;;;;;10.57;8.98;;;;;;;;;;5115815;28;20195;-82
2023/05/23 01:20:48;;;;;;;11.18;9.82;;;;;;;;;;5116336;28;20222;-82
2023/05/23 01:23:54;;;;;;;12.40;10.98;;;;;;;;;;5115978;28;20205;-81
2023/05/23 01:26:33;;;;;;;9.90;8.93;;;;;;;;;;5116466;28;20552;-81
2023/05/23 01:29:14;;;;;;;10.13;8.95;;;;;;;;;;5115843;28;20587;-82
2023/05/23 01:31:44;;;;;;;10.63;9.55;;;;;;;;;;5116786;28;20532;-82
2023/05/23 01:34:13;;;;;;;8.60;7.80;;;;;;;;;;5116623;28;20238;-82
2023/05/23 01:36:42;;;;;;;10.48;9.48;;;;;;;;;;5115931;28;20282;-83
2023/05/23 01:39:10;;;;;;;10.65;9.65;;;;;;;;;;5115622;28;20231;-82
2023/05/23 01:41:37;;;;;;;9.65;8.75;;;;;;;;;;5116580;28;20208;-81
2023/05/23 01:44:06;;;;;;;11.07;10.02;;;;;;;;;;5116134;28;20292;-81
2023/05/23 01:46:35;;;;;;;10.38;9.45;;;;;;;;;;5116324;28;20249;-82
2023/05/23 01:49:05;;;;;;;10.23;9.35;;;;;;;;;;5116067;28;20286;-83
2023/05/23 01:51:33;;;;;;;8.88;7.97;;;;;;;;;;5116245;28;20228;-82
2023/05/23 01:54:01;;;;;;;9.85;8.85;;;;;;;;;;5115841;28;20219;-83
2023/05/23 01:56:29;;;;;;;10.35;9.40;;;;;;;;;;5115573;28;20290;-82
2023/05/23 01:58:56;;;;;;;9.88;8.98;;;;;;;;;;5115811;28;20196;-83
2023/05/23 02:01:25;;;;;;;7.88;7.18;;;;;;;;;;5115512;28;20306;-83
2023/05/23 02:03:53;;;;;;;8.25;7.53;;;;;;;;;;5116117;28;20291;-84
2023/05/23 02:06:20;;;;;;;8.18;7.43;;;;;;;;;;5115998;28;20200;-84
2023/05/23 02:08:48;;;;;;;7.85;6.97;;;;;;;;;;5115471;28;20214;-82
2023/05/23 02:11:15;;;;;;;8.40;7.50;;;;;;;;;;5115535;28;20247;-81
2023/05/23 02:13:43;;;;;;;7.40;6.63;;;;;;;;;;5115033;28;20706;-81
2023/05/23 02:16:10;;;;;;;6.78;6.18;;;;;;;;;;5114745;28;20290;-81
2023/05/23 02:18:39;;;;;;;7.40;6.70;;;;;;;;;;5114483;28;20295;-82
2023/05/23 02:21:06;;;;;;;7.93;7.25;;;;;;;;;;5114460;28;20299;-82
2023/05/23 02:23:34;;;;;;;7.20;6.60;;;;;;;;;;5113834;28;20636;-82
2023/05/23 02:26:02;;;;;;;7.45;6.75;;;;;;;;;;5114659;28;20287;-83
2023/05/23 02:28:29;;;;;;;6.20;5.68;;;;;;;;;;5114850;28;20211;-81
2023/05/23 02:30:57;;;;;;;8.60;7.22;;;;;;;;;;5114510;28;20255;-81
2023/05/23 02:33:24;;;;;;;6.72;6.10;;;;;;;;;;5114147;28;20219;-82
2023/05/23 02:35:54;;;;;;;6.20;5.60;;;;;;;;;;5113898;28;20204;-81
2023/05/23 02:38:21;;;;;;;7.90;6.60;;;;;;;;;;5113436;28;20206;-82
2023/05/23 02:40:49;;;;;;;5.97;5.50;;;;;;;;;;5114290;28;20306;-81
2023/05/23 02:43:16;;;;;;;7.10;6.45;;;;;;;;;;5113957;28;20218;-82
2023/05/23 02:45:44;;;;;;;6.55;5.53;;;;;;;;;;5113424;28;20735;-82
2023/05/23 02:48:12;;;;;;;8.25;7.50;;;;;;;;;;5113400;28;20209;-82
2023/05/23 02:50:39;;;;;;;6.80;6.18;;;;;;;;;;5113010;28;20223;-82
2023/05/23 02:53:08;;;;;;;7.28;6.57;;;;;;;;;;5112642;28;20223;-82
2023/05/23 02:55:37;;;;;;;7.40;6.28;;;;;;;;;;5112326;28;20290;-81
2023/05/23 02:58:05;;;;;;;7.10;6.50;;;;;;;;;;5113201;28;20677;-81
2023/05/23 03:00:33;;;;;;;7.35;6.65;;;;;;;;;;5114140;28;20225;-83
2023/05/23 03:03:01;;;;;;;7.45;6.75;;;;;;;;;;5113707;28;20291;-82
2023/05/23 03:05:28;;;;;;;7.10;5.95;;;;;;;;;;5098329;28;20212;-82
2023/05/23 03:07:56;;;;;;;7.00;6.40;;;;;;;;;;5093001;28;20936;-81
2023/05/23 03:10:25;;;;;;;6.05;5.55;;;;;;;;;;5093048;28;20293;-82
2023/05/23 03:12:52;;;;;;;7.38;5.72;;;;;;;;;;5097031;28;20295;-81
2023/05/23 03:15:20;;;;;;;7.35;6.05;;;;;;;;;;5113119;28;20196;-82
2023/05/23 03:17:47;;;;;;;7.70;6.18;;;;;;;;;;5113119;28;20200;-82
2023/05/23 03:20:15;;;;;;;5.93;5.32;;;;;;;;;;5112566;28;20748;-82
2023/05/23 03:22:44;;;;;;;5.22;4.75;;;;;;;;;;5112855;28;20203;-82
2023/05/23 03:25:11;;;;;;;4.80;4.40;;;;;;;;;;5113718;28;20652;-81
2023/05/23 03:27:40;;;;;;;6.13;3.97;;;;;;;;;;5113460;28;20301;-82
2023/05/23 03:30:09;;;;;;;4.88;3.78;;;;;;;;;;5113699;28;20220;-81
2023/05/23 03:32:37;;;;;;;3.70;3.35;;;;;;;;;;5112951;28;20286;-81
2023/05/23 03:35:05;;;;;;;5.80;5.30;;;;;;;;;;5113388;28;20680;-82
2023/05/23 03:37:32;;;;;;;4.07;3.67;;;;;;;;;;5113873;28;20200;-82
2023/05/23 03:39:59;;;;;;;5.72;4.72;;;;;;;;;;5113410;28;20299;-82
2023/05/23 03:42:28;;;;;;;4.93;4.53;;;;;;;;;;5113250;28;20263;-81
2023/05/23 03:44:57;;;;;;;4.90;4.43;;;;;;;;;;5112746;28;20290;-82
2023/05/23 03:47:25;;;;;;;5.07;4.68;;;;;;;;;;5113015;28;20239;-83
2023/05/23 03:49:52;;;;;;;4.80;4.38;;;;;;;;;;5114218;28;20277;-83
2023/05/23 03:52:20;;;;;;;5.13;4.72;;;;;;;;;;5117075;28;20229;-84
2023/05/23 03:54:47;;;;;;;4.63;4.22;;;;;;;;;;5117370;28;20223;-84
2023/05/23 03:57:15;;;;;;;4.78;4.38;;;;;;;;;;5116891;28;20294;-83
2023/05/23 03:59:42;;;;;;;5.70;5.10;;;;;;;;;;5116698;28;20315;-83
2023/05/23 04:02:11;;;;;;;6.47;4.18;;;;;;;;;;5117508;28;20275;-81
2023/05/23 04:04:40;;;;;;;4.90;4.40;;;;;;;;;;5116882;28;20282;-81
2023/05/23 04:07:08;;;;;;;4.95;4.55;;;;;;;;;;5117830;28;20218;-81
2023/05/23 04:09:36;;;;;;;4.55;3.67;;;;;;;;;;5116731;28;20220;-82
2023/05/23 04:12:03;;;;;;;3.78;3.47;;;;;;;;;;5117447;28;20191;-82
2023/05/23 04:14:32;;;;;;;3.70;3.40;;;;;;;;;;5117139;28;20229;-80
2023/05/23 04:17:00;;;;;;;3.08;2.70;;;;;;;;;;5118206;28;20299;-82
2023/05/23 04:19:29;;;;;;;3.20;2.90;;;;;;;;;;5117823;28;20219;-81
2023/05/23 04:21:56;;;;;;;4.60;4.10;;;;;;;;;;5117197;28;20259;-80
2023/05/23 04:24:24;;;;;;;3.65;3.40;;;;;;;;;;5116940;28;20227;-81
2023/05/23 04:26:51;;;;;;;3.67;3.35;;;;;;;;;;5116130;28;20282;-81
2023/05/23 04:29:19;;;;;;;2.88;2.58;;;;;;;;;;5116493;28;20303;-82
2023/05/23 04:31:46;;;;;;;2.88;2.67;;;;;;;;;;5102373;28;20569;-80
2023/05/23 04:34:16;;;;;;;2.88;2.67;;;;;;;;;;5097310;28;20311;-81
2023/05/23 04:36:44;;;;;;;3.33;3.03;;;;;;;;;;5097315;28;20196;-83
2023/05/23 04:39:12;;;;;;;2.67;2.47;;;;;;;;;;5096815;28;20201;-81
2023/05/23 04:41:40;;;;;;;3.05;2.85;;;;;;;;;;5097103;28;20196;-83
2023/05/23 04:44:09;;;;;;;3.25;3.03;;;;;;;;;;5111405;28;20204;-81
2023/05/23 04:46:40;;;;;;;3.72;3.42;;;;;;;;;;5117164;28;20260;-84
2023/05/23 04:49:08;;;;;;;3.40;3.10;;;;;;;;;;5117129;28;20283;-84
2023/05/23 04:51:37;;;;;;;2.90;2.70;;;;;;;;;;5117179;28;20705;-83
2023/05/23 04:54:06;;;;;;;3.45;3.17;;;;;;;;;;5118888;28;20223;-85
2023/05/23 04:56:33;;;;;;;3.05;2.85;;;;;;;;;;5116883;28;20716;-85
2023/05/23 04:59:01;;;;;;;3.58;3.28;;;;;;;;;;5116635;28;20286;-83
2023/05/23 05:01:28;;;;;;;2.72;2.53;;;;;;;;;;5116375;28;20231;-82
2023/05/23 05:03:56;;;;;;;2.78;2.58;;;;;;;;;;5116693;28;20286;-82
2023/05/23 05:06:23;;;;;;;3.45;3.15;;;;;;;;;;5116471;28;20218;-83
2023/05/23 05:08:51;;;;;;;3.03;2.65;;;;;;;;;;5116826;28;20200;-83
2023/05/23 05:11:20;;;;;;;5.65;3.00;;;;;;;;;;5116119;28;20219;-84
2023/05/23 05:13:48;;;;;;;4.00;2.85;;;;;;;;;;5104984;28;20208;-81
2023/05/23 05:16:15;;;;;;;3.13;2.83;;;;;;;;;;5096351;28;20310;-81
2023/05/23 05:18:43;;;;;;;2.85;2.65;;;;;;;;;;5096130;28;20290;-83
2023/05/23 05:21:10;;;;;;;3.22;2.92;;;;;;;;;;5096319;28;20229;-82
2023/05/23 05:23:38;;;;;;;3.17;2.88;;;;;;;;;;5096214;28;20263;-83
2023/05/23 05:26:05;;;;;;;3.08;2.78;;;;;;;;;;5096111;28;20199;-82
2023/05/23 05:28:34;;;;;;;2.78;2.58;;;;;;;;;;5095990;28;20314;-83
2023/05/23 05:31:03;;;;;;;2.22;2.13;;;;;;;;;;5096771;28;20705;-82
2023/05/23 05:33:34;;;;;;;2.50;2.30;;;;;;;;;;5097198;28;20226;-84
2023/05/23 05:36:02;;;;;;;2.53;2.33;;;;;;;;;;5096971;28;20224;-82
2023/05/23 05:38:29;;;;;;;2.85;2.65;;;;;;;;;;5095596;28;20206;-81
2023/05/23 05:40:57;;;;;;;3.55;2.90;;;;;;;;;;5096129;28;20252;-82
2023/05/23 05:43:25;;;;;;;2.33;2.15;;;;;;;;;;5103994;28;20290;-82
2023/05/23 05:45:54;;;;;;;3.10;2.80;;;;;;;;;;5116191;28;20200;-84
2023/05/23 05:48:21;;;;;;;2.80;2.60;;;;;;;;;;5114743;28;20660;-84
2023/05/23 05:50:49;;;;;;;3.45;3.15;;;;;;;;;;5115270;28;20310;-84
2023/05/23 05:53:16;;;;;;;4.75;3.58;;;;;;;;;;5115403;28;20299;-83
2023/05/23 05:55:44;;;;;;;2.78;2.58;;;;;;;;;;5115792;28;20684;-83
2023/05/23 05:58:11;;;;;;;3.05;2.80;;;;;;;;;;5115470;28;20724;-84
2023/05/23 06:00:41;;;;;;;3.72;3.35;;;;;;;;;;5115864;28;20310;-83
2023/05/23 06:03:09;;;;;;;3.65;3.35;;;;;;;;;;5115471;28;20196;-82
2023/05/23 06:05:38;;;;;;;2.60;2.40;;;;;;;;;;5115596;28;20234;-83
2023/05/23 06:08:05;;;;;;;3.25;2.95;;;;;;;;;;5115628;28;20203;-82
2023/05/23 06:10:33;;;;;;;3.72;2.70;;;;;;;;;;5115777;28;20224;-84
2023/05/23 06:13:00;;;;;;;3.38;2.83;;;;;;;;;;5115703;28;20211;-82
2023/05/23 06:15:28;;;;;;;2.35;2.15;;;;;;;;;;5115327;28;20227;-82
2023/05/23 06:17:55;;;;;;;3.78;3.13;;;;;;;;;;5115786;28;20295;-81
2023/05/23 06:20:24;;;;;;;2.97;2.78;;;;;;;;;;5115769;28;20221;-82
2023/05/23 06:22:51;;;;;;;3.25;3.05;;;;;;;;;;5115768;28;20287;-82
2023/05/23 06:25:19;;;;;;;3.70;3.47;;;;;;;;;;5115243;28;20625;-81
2023/05/23 06:27:46;;;;;;;3.13;2.83;;;;;;;;;;5114588;28;20295;-81
2023/05/23 06:30:15;;;;;;;3.50;3.30;;;;;;;;;;5115672;28;20314;-80
2023/05/23 06:32:43;;;;;;;2.67;2.47;;;;;;;;;;5115932;28;20199;-82
2023/05/23 06:35:10;;;;;;;2.85;2.65;;;;;;;;;;5115758;28;20221;-83
2023/05/23 06:37:44;;;;;;;4.22;3.22;;;;;;;;;;5116276;28;20202;-81
2023/05/23 06:40:13;;;;;;;3.30;3.00;;;;;;;;;;5116444;28;20230;-81
2023/05/23 06:42:40;;;;;;;3.45;2.95;;;;;;;;;;5116274;28;20248;-83
2023/05/23 06:45:09;;;;;;;3.25;3.05;;;;;;;;;;5115287;28;20195;-82
2023/05/23 06:47:37;;;;;;;2.60;2.40;;;;;;;;;;5115727;28;20203;-83
2023/05/23 06:50:05;;;;;;;3.92;3.38;;;;;;;;;;5114643;28;20743;-84
2023/05/23 06:52:32;;;;;;;5.53;4.40;;;;;;;;;;5116022;28;20199;-84
2023/05/23 06:55:01;;;;;;;4.32;3.58;;;;;;;;;;5115756;28;20303;-83
2023/05/23 06:57:28;;;;;;;4.10;3.50;;;;;;;;;;5115187;28;20208;-83
2023/05/23 06:59:56;;;;;;;4.63;4.22;;;;;;;;;;5115425;28;20665;-82
2023/05/23 07:02:23;;;;;;;3.95;3.65;;;;;;;;;;5114892;28;20290;-81
2023/05/23 07:04:51;;;;;;;3.92;3.50;;;;;;;;;;5115362;28;20286;-84
2023/05/23 07:07:18;;;;;;;2.90;2.70;;;;;;;;;;5114525;28;20678;-81
2023/05/23 07:09:45;;;;;;;3.67;3.38;;;;;;;;;;5114672;28;20310;-82
2023/05/23 07:12:14;;;;;;;3.83;3.47;;;;;;;;;;5124330;28;20700;-81
2023/05/23 07:14:42;;;;;;;5.80;4.05;;;;;;;;;;5095890;28;20870;-82
2023/05/23 07:17:09;;;;;;;3.67;3.38;;;;;;;;;;5095219;28;20696;-82
2023/05/23 07:19:37;;;;;;;2.90;2.70;;;;;;;;;;5094338;28;20224;-82
2023/05/23 07:22:05;;;;;;;4.10;3.72;;;;;;;;;;5094673;28;20228;-80
2023/05/23 07:24:32;;;;;;;4.47;4.07;;;;;;;;;;5096979;28;20204;-83
2023/05/23 07:27:00;;;;;;;3.03;2.83;;;;;;;;;;5098766;28;20288;-83
2023/05/23 07:29:28;;;;;;;2.83;2.58;;;;;;;;;;5097725;28;20224;-81
2023/05/23 07:31:57;;;;;;;4.00;3.70;;;;;;;;;;5100121;28;20203;-81
2023/05/23 07:34:25;;;;;;;4.20;3.80;;;;;;;;;;5098748;28;20204;-81
2023/05/23 07:36:53;;;;;;;4.28;3.88;;;;;;;;;;5098672;28;20273;-82
2023/05/23 07:39:21;;;;;;;3.95;3.55;;;;;;;;;;5098652;28;20634;-82
2023/05/23 07:41:49;;;;;;;3.03;2.83;;;;;;;;;;5116167;28;20208;-82
2023/05/23 07:44:18;;;;;;;3.80;3.50;;;;;;;;;;5118959;28;20656;-84
2023/05/23 07:46:47;;;;;;;4.47;3.85;;;;;;;;;;5118959;28;20563;-84
2023/05/23 07:49:14;;;;;;;4.47;4.07;;;;;;;;;;5117741;28;20793;-83
2023/05/23 07:51:42;;;;;;;3.30;2.97;;;;;;;;;;5117938;28;20664;-84
2023/05/23 07:54:10;;;;;;;3.58;2.95;;;;;;;;;;5118860;28;20202;-84
2023/05/23 07:56:38;;;;;;;3.47;3.17;;;;;;;;;;5118026;28;20215;-81
2023/05/23 07:59:07;;;;;;;3.20;2.90;;;;;;;;;;5106515;28;20196;-84
2023/05/23 08:01:35;;;;;;;6.15;3.08;;;;;;;;;;5098408;28;20557;-83
2023/05/23 08:04:05;;;;;;;3.85;3.55;;;;;;;;;;5098129;28;20203;-83
2023/05/23 08:06:32;;;;;;;3.58;3.28;;;;;;;;;;5098194;28;20656;-84
2023/05/23 08:09:00;;;;;;;3.30;3.10;;;;;;;;;;5097978;28;20197;-84
2023/05/23 08:11:29;;;;;;;3.95;3.55;;;;;;;;;;5098085;28;20227;-84
2023/05/23 08:13:58;;;;;;;3.45;3.15;;;;;;;;;;5112067;28;20204;-82
2023/05/23 08:16:26;;;;;;;2.72;2.53;;;;;;;;;;5119681;28;20244;-83
2023/05/23 08:18:54;;;;;;;2.60;2.40;;;;;;;;;;5119281;28;20245;-82
2023/05/23 08:21:23;;;;;;;3.55;3.25;;;;;;;;;;5118936;28;20306;-82
2023/05/23 08:23:51;;;;;;;2.88;2.67;;;;;;;;;;5118090;28;20206;-83
2023/05/23 08:26:18;;;;;;;2.58;2.38;;;;;;;;;;5119057;28;20290;-82
2023/05/23 08:28:47;;;;;;;2.88;2.67;;;;;;;;;;5120388;28;20204;-82
2023/05/23 08:31:14;;;;;;;2.42;2.22;;;;;;;;;;5121649;28;20227;-83
2023/05/23 08:33:43;;;;;;;2.50;2.40;;;;;;;;;;5120898;28;20290;-83
2023/05/23 08:36:11;;;;;;;3.63;3.35;;;;;;;;;;5118949;28;20225;-83
2023/05/23 08:38:39;;;;;;;2.75;2.55;;;;;;;;;;5118835;28;20231;-84
2023/05/23 08:41:16;;;;;;;3.08;2.83;;;;;;;;;;5119619;28;20263;-85
2023/05/23 08:43:43;;;;;;;2.50;2.30;;;;;;;;;;5119462;28;20199;-83
2023/05/23 08:46:11;;;;;;;2.92;2.72;;;;;;;;;;5119780;28;20260;-84
2023/05/23 08:48:40;;;;;;;3.28;2.88;;;;;;;;;;5119479;28;20210;-84
2023/05/23 08:51:08;;;;;;;2.80;2.60;;;;;;;;;;5120102;28;20226;-82
2023/05/23 08:53:39;;;;;;;2.97;2.78;;;;;;;;;;5120121;28;20223;-84
2023/05/23 08:56:07;;;;;;;2.80;2.60;;;;;;;;;;5119834;28;20187;-85
2023/05/23 08:58:37;;;;;;;3.17;2.97;;;;;;;;;;5119938;28;20283;-85
2023/05/23 09:01:05;;;;;;;2.67;2.47;;;;;;;;;;5119207;28;20212;-83
2023/05/23 09:03:33;;;;;;;3.13;2.85;;;;;;;;;;5119358;28;20230;-84
2023/05/23 09:06:00;;;;;;;3.17;2.97;;;;;;;;;;5119021;28;20652;-85
2023/05/23 09:08:28;;;;;;;3.05;2.85;;;;;;;;;;5118836;28;20250;-83
2023/05/23 09:10:57;;;;;;;3.83;3.53;;;;;;;;;;5109727;28;20250;-84
2023/05/23 09:13:28;;;;;;;3.58;3.28;;;;;;;;;;5098282;28;20712;-82
2023/05/23 09:16:03;;;;;;;3.55;3.25;;;;;;;;;;5098811;28;20188;-84
2023/05/23 09:18:35;;;;;;;4.22;3.83;;;;;;;;;;5097683;28;20269;-82
2023/05/23 09:21:04;;;;;;;4.15;3.72;;;;;;;;;;5098553;28;20222;-84
2023/05/23 09:23:31;;;;;;;3.92;3.50;;;;;;;;;;5098668;28;20246;-83
2023/05/23 09:26:04;;;;;;;3.08;2.83;;;;;;;;;;5098659;28;20680;-83
2023/05/23 09:28:34;;;;;;;3.30;3.00;;;;;;;;;;5098656;28;20573;-84
2023/05/23 09:31:02;;;;;;;3.15;2.92;;;;;;;;;;5098553;28;20696;-82
2023/05/23 09:33:39;;;;;;;2.60;2.40;;;;;;;;;;5104952;28;20286;-83
2023/05/23 09:36:07;;;;;;;4.43;2.60;;;;;;;;;;5098991;28;20280;-83
2023/05/23 09:38:39;;;;;;;3.00;2.80;;;;;;;;;;5098988;28;20259;-83
2023/05/23 09:41:10;;;;;;;2.40;2.20;;;;;;;;;;5108992;28;20215;-83
2023/05/23 09:43:39;;;;;;;2.55;2.10;;;;;;;;;;5105156;28;20192;-83
2023/05/23 09:46:11;;;;;;;2.50;2.30;;;;;;;;;;5097790;28;20208;-83
2023/05/23 09:48:38;;;;;;;2.30;2.10;;;;;;;;;;5096450;28;20661;-83
2023/05/23 09:51:07;;;;;;;2.33;2.13;;;;;;;;;;5097597;28;20336;-85
2023/05/23 09:53:34;;;;;;;2.33;1.85;;;;;;;;;;5096623;28;20192;-86
2023/05/23 09:56:03;;;;;;;1.70;1.60;;;;;;;;;;5096578;28;20204;-85
2023/05/23 09:58:33;;;;;;;1.60;1.45;;;;;;;;;;5096945;28;20623;-84
2023/05/23 10:01:02;;;;;;;1.80;1.70;;;;;;;;;;5096722;28;20598;-85
2023/05/23 10:03:35;;;;;;;1.40;1.30;;;;;;;;;;5096664;28;20200;-84
2023/05/23 10:06:09;;;;;;;1.73;1.58;;;;;;;;;;5095667;28;20192;-88
2023/05/23 10:08:40;;;;;;;1.45;1.35;;;;;;;;;;5097017;28;20188;-87
2023/05/23 10:12:10;;;;;;;1.42;1.35;;;;;;;;;;5097139;28;20296;-85
2023/05/23 10:14:43;;;;;;;0.82;0.82;;;;;;;;;;5077117;28;20199;-84
2023/05/23 10:17:15;;;;;;;1.55;1.45;;;;;;;;;;5096534;28;20181;-83
2023/05/23 10:19:47;;;;;;;1.30;1.20;;;;;;;;;;5096449;28;20216;-84
2023/05/23 10:22:15;;;;;;;1.13;1.13;;;;;;;;;;5096220;28;20185;-83
2023/05/23 10:24:46;;;;;;;1.00;1.00;;;;;;;;;;5095979;28;20291;-86
2023/05/23 10:27:14;;;;;;;0.85;0.85;;;;;;;;;;5095554;28;20263;-85
2023/05/23 10:29:43;;;;;;;0.95;0.95;;;;;;;;;;5095000;28;20220;-87
2023/05/23 10:32:13;;;;;;;1.10;1.10;;;;;;;;;;5108462;28;20202;-84
2023/05/23 10:34:44;;;;;;;1.00;0.93;;;;;;;;;;5115474;28;20265;-84
2023/05/23 10:37:21;;;;;;;1.00;1.00;;;;;;;;;;5115589;28;20712;-84
2023/05/23 10:39:57;;;;;;;0.63;0.63;;;;;;;;;;5114962;28;20219;-84
2023/05/23 10:42:41;;;;;;;0.90;0.85;;;;;;;;;;5094974;28;20672;-83
2023/05/23 10:45:18;;;;;;;0.90;0.90;;;;;;;;;;5094232;28;20271;-83
2023/05/23 10:47:47;;;;;;;1.90;0.93;;;;;;;;;;5093558;28;20200;-85
2023/05/23 10:50:16;;;;;;;0.80;0.80;;;;;;;;;;5094202;28;20224;-85
2023/05/23 10:52:44;;;;;;;1.23;0.88;;;;;;;;;;5094208;28;20224;-85
2023/05/23 10:55:17;;;;;;;0.80;0.80;;;;;;;;;;5094400;28;20385;-84
2023/05/23 10:57:45;;;;;;;1.05;1.05;;;;;;;;;;5093875;28;20224;-84
2023/05/23 11:00:17;;;;;;;1.13;1.10;;;;;;;;;;5093998;28;20252;-84
2023/05/23 11:02:55;;;;;;;0.90;0.90;;;;;;;;;;5095780;28;20635;-82
2023/05/23 11:05:27;;;;;;;1.08;1.08;;;;;;;;;;5094761;28;20237;-83
2023/05/23 11:08:12;;;;;;;1.40;1.30;;;;;;;;;;5094984;28;20237;-83
2023/05/23 11:10:58;;;;;;;5.78;1.42;;;;;;;;;;5094780;28;20228;-84
2023/05/23 11:13:26;;;;;;;1.85;1.40;;;;;;;;;;5094932;28;20549;-83
2023/05/23 11:15:55;;;;;;;1.08;1.08;;;;;;;;;;5094523;28;20210;-84
2023/05/23 11:18:26;;;;;;;1.52;1.42;;;;;;;;;;5093833;28;20220;-84
2023/05/23 11:20:55;;;;;;;1.48;1.38;;;;;;;;;;5094946;28;20361;-83
2023/05/23 11:23:23;;;;;;;1.65;1.55;;;;;;;;;;5095097;28;20291;-85
2023/05/23 11:25:52;;;;;;;2.28;2.08;;;;;;;;;;5093975;28;20208;-86
2023/05/23 11:28:21;;;;;;;2.42;2.20;;;;;;;;;;5095094;28;20212;-84
2023/05/23 11:30:49;;;;;;;2.25;2.05;;;;;;;;;;5094973;28;20222;-83
2023/05/23 11:33:19;;;;;;;2.13;2.03;;;;;;;;;;5108515;28;20214;-83
2023/05/23 11:35:50;;;;;;;3.10;2.80;;;;;;;;;;5115307;28;20290;-82
2023/05/23 11:38:18;;;;;;;3.80;2.75;;;;;;;;;;5115330;28;20219;-82
2023/05/23 11:40:47;;;;;;;3.25;2.72;;;;;;;;;;5107732;28;20226;-82
2023/05/23 11:43:18;;;;;;;3.83;2.42;;;;;;;;;;5095181;28;20206;-83
2023/05/23 11:45:46;;;;;;;2.65;2.45;;;;;;;;;;5094886;28;20184;-83
2023/05/23 11:48:17;;;;;;;2.83;2.40;;;;;;;;;;5094965;28;20196;-83
2023/05/23 11:50:46;;;;;;;2.85;2.65;;;;;;;;;;5094612;28;20316;-84
2023/05/23 11:53:23;;;;;;;2.80;2.60;;;;;;;;;;5095238;28;20706;-82
2023/05/23 11:55:53;;;;;;;3.05;2.83;;;;;;;;;;5094853;28;20349;-82
2023/05/23 11:58:22;;;;;;;3.40;3.10;;;;;;;;;;5094603;28;20224;-83
2023/05/23 12:00:50;;;;;;;3.25;2.95;;;;;;;;;;5094497;28;20216;-83
2023/05/23 12:03:19;;;;;;;3.00;2.80;;;;;;;;;;5107087;28;20555;-83
2023/05/23 12:05:46;;;;;;;3.08;2.72;;;;;;;;;;5112695;28;20199;-83
2023/05/23 12:08:14;;;;;;;3.47;3.17;;;;;;;;;;5113708;28;20250;-83
2023/05/23 12:10:51;;;;;;;3.65;3.25;;;;;;;;;;5107841;28;20274;-84
2023/05/23 12:13:19;;;;;;;3.17;2.88;;;;;;;;;;5097722;28;20279;-83
2023/05/23 12:15:46;;;;;;;3.40;3.10;;;;;;;;;;5096819;28;20729;-85
2023/05/23 12:18:14;;;;;;;4.20;3.80;;;;;;;;;;5096171;28;20196;-86
2023/05/23 12:20:43;;;;;;;3.25;3.00;;;;;;;;;;5097057;28;20227;-84
2023/05/23 12:23:19;;;;;;;3.47;3.20;;;;;;;;;;5097254;28;20227;-84
2023/05/23 12:25:51;;;;;;;4.15;3.63;;;;;;;;;;5097343;28;20206;-84
2023/05/23 12:28:19;;;;;;;4.47;3.28;;;;;;;;;;5097305;28;20207;-84
2023/05/23 12:30:47;;;;;;;4.25;3.95;;;;;;;;;;5097583;28;20692;-84
2023/05/23 12:33:15;;;;;;;4.03;3.20;;;;;;;;;;5110499;28;20286;-83
2023/05/23 12:35:47;;;;;;;4.30;3.65;;;;;;;;;;5117275;28;20207;-82
2023/05/23 12:38:17;;;;;;;3.75;3.45;;;;;;;;;;5117395;28;20291;-83
2023/05/23 12:40:44;;;;;;;5.65;3.55;;;;;;;;;;5117957;28;20227;-83
2023/05/23 12:43:12;;;;;;;5.90;3.42;;;;;;;;;;5117679;28;20574;-83
2023/05/23 12:45:39;;;;;;;4.57;4.18;;;;;;;;;;5117725;28;20230;-83
2023/05/23 12:48:07;;;;;;;4.13;3.83;;;;;;;;;;5118621;28;20636;-84
2023/05/23 12:50:35;;;;;;;6.28;3.70;;;;;;;;;;5118247;28;20216;-84
2023/05/23 12:53:04;;;;;;;5.50;4.75;;;;;;;;;;5117774;28;20206;-83
2023/05/23 12:55:31;;;;;;;6.60;4.95;;;;;;;;;;5118001;28;20228;-82
2023/05/23 12:57:59;;;;;;;4.75;4.25;;;;;;;;;;5117066;28;20226;-82
2023/05/23 13:00:26;;;;;;;5.78;5.28;;;;;;;;;;5118311;28;20255;-83
2023/05/23 13:02:54;;;;;;;5.10;4.70;;;;;;;;;;5118062;28;20286;-82
2023/05/23 13:05:21;;;;;;;5.47;4.97;;;;;;;;;;5118374;28;20200;-82
2023/05/23 13:07:49;;;;;;;7.00;5.10;;;;;;;;;;5117636;28;20201;-83
2023/05/23 13:10:18;;;;;;;6.80;5.57;;;;;;;;;;5117798;28;20227;-83
2023/05/23 13:12:45;;;;;;;6.45;5.45;;;;;;;;;;5117237;28;20595;-84
2023/05/23 13:15:13;;;;;;;5.93;5.28;;;;;;;;;;5116582;28;20291;-82
2023/05/23 13:17:40;;;;;;;6.90;4.85;;;;;;;;;;5116236;28;20204;-84
2023/05/23 13:20:10;;;;;;;5.43;4.25;;;;;;;;;;5116917;28;20231;-84
2023/05/23 13:22:38;;;;;;;5.65;4.93;;;;;;;;;;5115437;28;20590;-86
2023/05/23 13:25:08;;;;;;;5.43;4.93;;;;;;;;;;5117129;28;20202;-85
2023/05/23 13:27:36;;;;;;;5.53;4.57;;;;;;;;;;5117119;28;20275;-85
2023/05/23 13:30:05;;;;;;;6.72;5.13;;;;;;;;;;5117534;28;20227;-84
2023/05/23 13:32:33;;;;;;;4.68;4.28;;;;;;;;;;5117263;28;20210;-85
2023/05/23 13:35:00;;;;;;;5.85;5.28;;;;;;;;;;5116906;28;20652;-83
2023/05/23 13:37:28;;;;;;;6.18;4.68;;;;;;;;;;5115745;28;20671;-84
2023/05/23 13:39:55;;;;;;;5.80;5.03;;;;;;;;;;5116405;28;20224;-83
2023/05/23 13:42:22;;;;;;;5.82;4.47;;;;;;;;;;5117271;28;20290;-84
2023/05/23 13:44:51;;;;;;;6.72;4.72;;;;;;;;;;5117923;28;20225;-85
2023/05/23 13:47:19;;;;;;;6.32;5.20;;;;;;;;;;5117457;28;20286;-84
2023/05/23 13:49:46;;;;;;;6.13;4.50;;;;;;;;;;5117390;28;20212;-84
2023/05/23 13:52:14;;;;;;;7.82;4.72;;;;;;;;;;5115970;28;20209;-84
2023/05/23 13:54:42;;;;;;;7.50;5.45;;;;;;;;;;5117368;28;20195;-83
2023/05/23 13:57:09;;;;;;;5.18;4.03;;;;;;;;;;5117461;28;20199;-84
2023/05/23 13:59:37;;;;;;;8.45;4.68;;;;;;;;;;5116192;28;20250;-84
2023/05/23 14:02:06;;;;;;;6.85;4.00;;;;;;;;;;5116947;28;20211;-83
2023/05/23 14:04:34;;;;;;;6.05;4.75;;;;;;;;;;5117712;28;20238;-83
2023/05/23 14:07:02;;;;;;;5.85;4.38;;;;;;;;;;5116996;28;20749;-83
2023/05/23 14:09:30;;;;;;;4.15;3.75;;;;;;;;;;5116379;28;20828;-84
2023/05/23 14:11:57;;;;;;;4.75;3.92;;;;;;;;;;5097973;28;20253;-85
2023/05/23 14:14:25;;;;;;;7.47;5.32;;;;;;;;;;5095419;28;20252;-85
2023/05/23 14:16:53;;;;;;;8.63;4.90;;;;;;;;;;5097137;28;20196;-83
2023/05/23 14:19:22;;;;;;;12.60;4.57;;;;;;;;;;5096375;28;20724;-84
2023/05/23 14:21:49;;;;;;;7.65;4.18;;;;;;;;;;5097213;28;20204;-85
2023/05/23 14:24:17;;;;;;;5.75;4.22;;;;;;;;;;5096549;28;20366;-83
2023/05/23 14:26:45;;;;;;;8.27;5.18;;;;;;;;;;5097367;28;20206;-83
2023/05/23 14:29:13;;;;;;;6.60;3.97;;;;;;;;;;5101695;28;20208;-82
2023/05/23 14:31:40;;;;;;;5.45;3.88;;;;;;;;;;5106539;28;20620;-83
2023/05/23 14:34:08;;;;;;;5.78;4.55;;;;;;;;;;5116637;28;20537;-82
2023/05/23 14:36:36;;;;;;;5.50;3.05;;;;;;;;;;5114471;28;20294;-82
2023/05/23 14:39:05;;;;;;;7.05;4.15;;;;;;;;;;5114079;28;20203;-82
2023/05/23 14:41:33;;;;;;;6.95;3.70;;;;;;;;;;5113989;28;20314;-83
2023/05/23 14:44:01;;;;;;;6.25;4.38;;;;;;;;;;5114008;28;20222;-81
2023/05/23 14:46:28;;;;;;;4.38;3.70;;;;;;;;;;5114327;28;20200;-83
2023/05/23 14:48:56;;;;;;;4.90;3.90;;;;;;;;;;5114193;28;20294;-81
2023/05/23 14:51:23;;;;;;;4.82;3.50;;;;;;;;;;5113348;28;20218;-82
2023/05/23 14:53:52;;;;;;;6.30;3.95;;;;;;;;;;5113868;28;20270;-82